sensor_id;sensor_type;location;lat;lon;timestamp;P1;durP1;ratioP1;P2;durP2;ratioP2
46675;SDS011;32412;51.478;5.694;2023-06-22T00:00:50;9.35;;;5.82;;
46675;SDS011;32412;51.478;5.694;2023-06-22T00:03:20;6.53;;;5.45;;
46675;SDS011;32412;51.478;5.694;2023-06-22T00:05:47;9.35;;;5.53;;
46675;SDS011;32412;51.478;5.694;2023-06-22T00:08:13;10.25;;;5.45;;
46675;SDS011;32412;51.478;5.694;2023-06-22T00:10:39;9.43;;;6.20;;
46675;SDS011;32412;51.478;5.694;2023-06-22T00:13:06;10.82;;;6.30;;
46675;SDS011;32412;51.478;5.694;2023-06-22T00:15:33;8.82;;;6.57;;
46675;SDS011;32412;51.478;5.694;2023-06-22T00:17:59;9.82;;;7.15;;
46675;SDS011;32412;51.478;5.694;2023-06-22T00:20:28;8.43;;;6.47;;
46675;SDS011;32412;51.478;5.694;2023-06-22T00:22:55;9.98;;;6.68;;
46675;SDS011;32412;51.478;5.694;2023-06-22T00:25:21;8.68;;;6.50;;
46675;SDS011;32412;51.478;5.694;2023-06-22T00:27:47;8.38;;;6.63;;
46675;SDS011;32412;51.478;5.694;2023-06-22T00:30:14;7.63;;;6.47;;
46675;SDS011;32412;51.478;5.694;2023-06-22T00:32:41;9.52;;;7.40;;
46675;SDS011;32412;51.478;5.694;2023-06-22T00:35:07;7.97;;;7.15;;
46675;SDS011;32412;51.478;5.694;2023-06-22T00:37:33;11.30;;;7.70;;
46675;SDS011;32412;51.478;5.694;2023-06-22T00:40:00;11.05;;;7.95;;
46675;SDS011;32412;51.478;5.694;2023-06-22T00:42:27;11.23;;;7.38;;
46675;SDS011;32412;51.478;5.694;2023-06-22T00:44:52;11.70;;;7.72;;
46675;SDS011;32412;51.478;5.694;2023-06-22T00:47:18;8.40;;;7.50;;
46675;SDS011;32412;51.478;5.694;2023-06-22T00:49:44;9.77;;;7.80;;
46675;SDS011;32412;51.478;5.694;2023-06-22T00:52:11;12.98;;;8.15;;
46675;SDS011;32412;51.478;5.694;2023-06-22T00:57:13;10.15;;;8.40;;
46675;SDS011;32412;51.478;5.694;2023-06-22T00:59:44;29.05;;;9.23;;
46675;SDS011;32412;51.478;5.694;2023-06-22T01:02:10;11.85;;;8.80;;
46675;SDS011;32412;51.478;5.694;2023-06-22T01:04:37;11.93;;;8.35;;
46675;SDS011;32412;51.478;5.694;2023-06-22T01:12:16;10.43;;;8.35;;
46675;SDS011;32412;51.478;5.694;2023-06-22T01:14:45;12.70;;;8.95;;
46675;SDS011;32412;51.478;5.694;2023-06-22T01:17:17;12.75;;;9.30;;
46675;SDS011;32412;51.478;5.694;2023-06-22T01:22:20;13.68;;;9.27;;
46675;SDS011;32412;51.478;5.694;2023-06-22T01:30:30;14.65;;;10.05;;
46675;SDS011;32412;51.478;5.694;2023-06-22T01:32:59;13.60;;;10.15;;
46675;SDS011;32412;51.478;5.694;2023-06-22T01:35:27;12.68;;;9.40;;
46675;SDS011;32412;51.478;5.694;2023-06-22T01:37:53;14.23;;;10.00;;
46675;SDS011;32412;51.478;5.694;2023-06-22T01:40:20;14.07;;;10.93;;
46675;SDS011;32412;51.478;5.694;2023-06-22T01:42:46;12.27;;;10.40;;
46675;SDS011;32412;51.478;5.694;2023-06-22T01:45:13;14.57;;;10.38;;
46675;SDS011;32412;51.478;5.694;2023-06-22T01:47:39;15.25;;;11.13;;
46675;SDS011;32412;51.478;5.694;2023-06-22T01:50:06;19.20;;;10.45;;
46675;SDS011;32412;51.478;5.694;2023-06-22T01:52:32;15.38;;;10.25;;
46675;SDS011;32412;51.478;5.694;2023-06-22T01:54:59;16.67;;;11.00;;
46675;SDS011;32412;51.478;5.694;2023-06-22T01:57:26;18.85;;;11.07;;
46675;SDS011;32412;51.478;5.694;2023-06-22T02:05:17;14.60;;;11.50;;
46675;SDS011;32412;51.478;5.694;2023-06-22T02:07:45;15.55;;;10.90;;
46675;SDS011;32412;51.478;5.694;2023-06-22T02:10:14;15.23;;;11.10;;
46675;SDS011;32412;51.478;5.694;2023-06-22T02:12:44;20.58;;;12.32;;
46675;SDS011;32412;51.478;5.694;2023-06-22T02:15:11;14.55;;;10.68;;
46675;SDS011;32412;51.478;5.694;2023-06-22T02:17:38;17.95;;;11.45;;
46675;SDS011;32412;51.478;5.694;2023-06-22T02:20:03;14.98;;;11.85;;
46675;SDS011;32412;51.478;5.694;2023-06-22T02:22:33;19.02;;;12.02;;
46675;SDS011;32412;51.478;5.694;2023-06-22T02:24:59;14.23;;;11.63;;
46675;SDS011;32412;51.478;5.694;2023-06-22T02:27:25;14.57;;;10.95;;
46675;SDS011;32412;51.478;5.694;2023-06-22T02:29:51;16.42;;;11.68;;
46675;SDS011;32412;51.478;5.694;2023-06-22T02:32:16;16.48;;;11.02;;
46675;SDS011;32412;51.478;5.694;2023-06-22T02:34:43;15.95;;;11.57;;
46675;SDS011;32412;51.478;5.694;2023-06-22T02:37:12;18.25;;;11.80;;
46675;SDS011;32412;51.478;5.694;2023-06-22T02:39:41;16.67;;;11.93;;
46675;SDS011;32412;51.478;5.694;2023-06-22T02:42:07;19.30;;;13.10;;
46675;SDS011;32412;51.478;5.694;2023-06-22T02:44:33;19.65;;;11.60;;
46675;SDS011;32412;51.478;5.694;2023-06-22T02:46:58;18.38;;;11.80;;
46675;SDS011;32412;51.478;5.694;2023-06-22T02:49:24;12.85;;;11.05;;
46675;SDS011;32412;51.478;5.694;2023-06-22T02:51:50;14.82;;;11.20;;
46675;SDS011;32412;51.478;5.694;2023-06-22T02:54:15;16.48;;;11.45;;
46675;SDS011;32412;51.478;5.694;2023-06-22T02:56:41;17.75;;;11.60;;
46675;SDS011;32412;51.478;5.694;2023-06-22T02:59:09;21.00;;;12.40;;
46675;SDS011;32412;51.478;5.694;2023-06-22T03:01:35;18.30;;;12.07;;
46675;SDS011;32412;51.478;5.694;2023-06-22T03:04:07;16.00;;;12.27;;
46675;SDS011;32412;51.478;5.694;2023-06-22T03:06:41;19.13;;;12.77;;
46675;SDS011;32412;51.478;5.694;2023-06-22T03:09:07;15.40;;;12.02;;
46675;SDS011;32412;51.478;5.694;2023-06-22T03:11:33;17.23;;;11.75;;
46675;SDS011;32412;51.478;5.694;2023-06-22T03:13:59;16.50;;;12.43;;
46675;SDS011;32412;51.478;5.694;2023-06-22T03:16:26;15.50;;;11.38;;
46675;SDS011;32412;51.478;5.694;2023-06-22T03:18:52;19.70;;;11.77;;
46675;SDS011;32412;51.478;5.694;2023-06-22T03:21:21;16.60;;;12.10;;
46675;SDS011;32412;51.478;5.694;2023-06-22T03:23:47;16.30;;;11.65;;
46675;SDS011;32412;51.478;5.694;2023-06-22T03:26:16;15.80;;;12.07;;
46675;SDS011;32412;51.478;5.694;2023-06-22T03:28:42;15.90;;;11.82;;
46675;SDS011;32412;51.478;5.694;2023-06-22T03:31:08;16.92;;;11.90;;
46675;SDS011;32412;51.478;5.694;2023-06-22T03:33:34;16.38;;;11.60;;
46675;SDS011;32412;51.478;5.694;2023-06-22T03:36:00;15.77;;;11.40;;
46675;SDS011;32412;51.478;5.694;2023-06-22T03:38:25;16.38;;;12.55;;
46675;SDS011;32412;51.478;5.694;2023-06-22T03:40:51;16.33;;;12.80;;
46675;SDS011;32412;51.478;5.694;2023-06-22T03:43:17;18.08;;;12.10;;
46675;SDS011;32412;51.478;5.694;2023-06-22T03:45:42;19.52;;;12.32;;
46675;SDS011;32412;51.478;5.694;2023-06-22T03:48:10;17.98;;;12.43;;
46675;SDS011;32412;51.478;5.694;2023-06-22T03:50:36;16.98;;;12.35;;
46675;SDS011;32412;51.478;5.694;2023-06-22T03:53:02;16.23;;;11.95;;
46675;SDS011;32412;51.478;5.694;2023-06-22T03:55:27;15.52;;;11.98;;
46675;SDS011;32412;51.478;5.694;2023-06-22T03:57:53;18.48;;;12.15;;
46675;SDS011;32412;51.478;5.694;2023-06-22T04:00:21;17.70;;;12.20;;
46675;SDS011;32412;51.478;5.694;2023-06-22T04:02:50;18.88;;;12.05;;
46675;SDS011;32412;51.478;5.694;2023-06-22T04:05:15;16.15;;;11.73;;
46675;SDS011;32412;51.478;5.694;2023-06-22T04:07:43;13.88;;;11.85;;
46675;SDS011;32412;51.478;5.694;2023-06-22T04:10:09;16.40;;;12.43;;
46675;SDS011;32412;51.478;5.694;2023-06-22T04:12:35;16.98;;;12.80;;
46675;SDS011;32412;51.478;5.694;2023-06-22T04:15:01;13.45;;;11.25;;
46675;SDS011;32412;51.478;5.694;2023-06-22T04:17:27;17.48;;;11.75;;
46675;SDS011;32412;51.478;5.694;2023-06-22T04:19:52;16.52;;;11.52;;
46675;SDS011;32412;51.478;5.694;2023-06-22T04:22:18;13.70;;;11.30;;
46675;SDS011;32412;51.478;5.694;2023-06-22T04:24:44;16.67;;;11.63;;
46675;SDS011;32412;51.478;5.694;2023-06-22T04:27:10;14.68;;;12.27;;
46675;SDS011;32412;51.478;5.694;2023-06-22T04:29:36;16.08;;;11.90;;
46675;SDS011;32412;51.478;5.694;2023-06-22T04:32:03;18.00;;;11.93;;
46675;SDS011;32412;51.478;5.694;2023-06-22T04:34:30;13.95;;;11.63;;
46675;SDS011;32412;51.478;5.694;2023-06-22T04:36:56;15.80;;;12.38;;
46675;SDS011;32412;51.478;5.694;2023-06-22T04:39:22;19.13;;;13.02;;
46675;SDS011;32412;51.478;5.694;2023-06-22T04:41:48;17.85;;;12.93;;
46675;SDS011;32412;51.478;5.694;2023-06-22T04:44:16;16.20;;;12.38;;
46675;SDS011;32412;51.478;5.694;2023-06-22T04:46:52;17.92;;;14.00;;
46675;SDS011;32412;51.478;5.694;2023-06-22T04:49:24;17.15;;;13.23;;
46675;SDS011;32412;51.478;5.694;2023-06-22T04:51:57;17.95;;;13.02;;
46675;SDS011;32412;51.478;5.694;2023-06-22T04:54:27;17.13;;;13.65;;
46675;SDS011;32412;51.478;5.694;2023-06-22T04:56:52;16.95;;;13.63;;
46675;SDS011;32412;51.478;5.694;2023-06-22T04:59:25;18.65;;;14.60;;
46675;SDS011;32412;51.478;5.694;2023-06-22T05:01:55;22.23;;;14.70;;
46675;SDS011;32412;51.478;5.694;2023-06-22T05:04:25;17.85;;;13.60;;
46675;SDS011;32412;51.478;5.694;2023-06-22T05:06:53;18.42;;;13.73;;
46675;SDS011;32412;51.478;5.694;2023-06-22T05:09:19;17.08;;;13.98;;
46675;SDS011;32412;51.478;5.694;2023-06-22T05:11:46;20.65;;;14.50;;
46675;SDS011;32412;51.478;5.694;2023-06-22T05:14:11;21.00;;;14.60;;
46675;SDS011;32412;51.478;5.694;2023-06-22T05:16:38;19.38;;;15.65;;
46675;SDS011;32412;51.478;5.694;2023-06-22T05:19:04;21.15;;;15.35;;
46675;SDS011;32412;51.478;5.694;2023-06-22T05:21:30;18.88;;;14.68;;
46675;SDS011;32412;51.478;5.694;2023-06-22T05:23:56;22.42;;;15.85;;
46675;SDS011;32412;51.478;5.694;2023-06-22T05:26:25;20.33;;;15.43;;
46675;SDS011;32412;51.478;5.694;2023-06-22T05:28:52;20.23;;;15.68;;
46675;SDS011;32412;51.478;5.694;2023-06-22T05:31:18;21.77;;;15.63;;
46675;SDS011;32412;51.478;5.694;2023-06-22T05:33:45;23.55;;;16.02;;
46675;SDS011;32412;51.478;5.694;2023-06-22T05:36:11;25.92;;;16.63;;
46675;SDS011;32412;51.478;5.694;2023-06-22T05:38:37;20.38;;;16.70;;
46675;SDS011;32412;51.478;5.694;2023-06-22T05:41:04;24.40;;;16.70;;
46675;SDS011;32412;51.478;5.694;2023-06-22T05:43:30;23.15;;;17.25;;
46675;SDS011;32412;51.478;5.694;2023-06-22T05:45:56;20.65;;;16.63;;
46675;SDS011;32412;51.478;5.694;2023-06-22T05:48:22;25.02;;;16.83;;
46675;SDS011;32412;51.478;5.694;2023-06-22T05:50:48;22.27;;;17.10;;
46675;SDS011;32412;51.478;5.694;2023-06-22T05:53:14;23.08;;;17.23;;
46675;SDS011;32412;51.478;5.694;2023-06-22T05:55:40;23.92;;;18.25;;
46675;SDS011;32412;51.478;5.694;2023-06-22T05:58:07;21.98;;;17.77;;
46675;SDS011;32412;51.478;5.694;2023-06-22T06:00:33;22.80;;;18.30;;
46675;SDS011;32412;51.478;5.694;2023-06-22T06:02:59;22.25;;;17.58;;
46675;SDS011;32412;51.478;5.694;2023-06-22T06:05:31;22.95;;;18.13;;
46675;SDS011;32412;51.478;5.694;2023-06-22T06:07:59;25.65;;;18.15;;
46675;SDS011;32412;51.478;5.694;2023-06-22T06:10:25;22.77;;;17.13;;
46675;SDS011;32412;51.478;5.694;2023-06-22T06:12:51;25.35;;;17.77;;
46675;SDS011;32412;51.478;5.694;2023-06-22T06:15:17;22.15;;;17.08;;
46675;SDS011;32412;51.478;5.694;2023-06-22T06:17:49;22.92;;;17.75;;
46675;SDS011;32412;51.478;5.694;2023-06-22T06:20:19;22.45;;;16.77;;
46675;SDS011;32412;51.478;5.694;2023-06-22T06:22:47;22.67;;;17.17;;
46675;SDS011;32412;51.478;5.694;2023-06-22T06:25:13;23.23;;;16.48;;
46675;SDS011;32412;51.478;5.694;2023-06-22T06:27:51;20.95;;;16.33;;
46675;SDS011;32412;51.478;5.694;2023-06-22T06:30:19;21.55;;;16.17;;
46675;SDS011;32412;51.478;5.694;2023-06-22T06:32:46;20.67;;;16.25;;
46675;SDS011;32412;51.478;5.694;2023-06-22T06:35:12;21.08;;;15.95;;
46675;SDS011;32412;51.478;5.694;2023-06-22T06:37:39;22.40;;;15.93;;
46675;SDS011;32412;51.478;5.694;2023-06-22T06:40:07;21.60;;;16.60;;
46675;SDS011;32412;51.478;5.694;2023-06-22T06:42:35;17.98;;;15.73;;
46675;SDS011;32412;51.478;5.694;2023-06-22T06:45:03;19.80;;;16.23;;
46675;SDS011;32412;51.478;5.694;2023-06-22T06:47:33;17.70;;;15.43;;
46675;SDS011;32412;51.478;5.694;2023-06-22T06:49:59;19.13;;;15.55;;
46675;SDS011;32412;51.478;5.694;2023-06-22T06:52:25;22.08;;;16.58;;
46675;SDS011;32412;51.478;5.694;2023-06-22T06:54:51;19.08;;;16.10;;
46675;SDS011;32412;51.478;5.694;2023-06-22T06:57:17;18.95;;;15.93;;
46675;SDS011;32412;51.478;5.694;2023-06-22T06:59:43;19.77;;;16.33;;
46675;SDS011;32412;51.478;5.694;2023-06-22T07:02:09;19.83;;;15.75;;
46675;SDS011;32412;51.478;5.694;2023-06-22T07:04:34;20.48;;;16.05;;
46675;SDS011;32412;51.478;5.694;2023-06-22T07:07:01;21.77;;;17.50;;
46675;SDS011;32412;51.478;5.694;2023-06-22T07:09:27;25.55;;;16.65;;
46675;SDS011;32412;51.478;5.694;2023-06-22T07:11:53;20.33;;;16.70;;
46675;SDS011;32412;51.478;5.694;2023-06-22T07:14:18;23.27;;;16.83;;
46675;SDS011;32412;51.478;5.694;2023-06-22T07:16:44;19.40;;;15.65;;
46675;SDS011;32412;51.478;5.694;2023-06-22T07:19:13;28.75;;;16.85;;
46675;SDS011;32412;51.478;5.694;2023-06-22T07:21:39;19.73;;;15.93;;
46675;SDS011;32412;51.478;5.694;2023-06-22T07:24:05;17.63;;;15.55;;
46675;SDS011;32412;51.478;5.694;2023-06-22T07:26:32;22.00;;;16.58;;
46675;SDS011;32412;51.478;5.694;2023-06-22T07:28:58;19.45;;;15.45;;
46675;SDS011;32412;51.478;5.694;2023-06-22T07:31:24;19.80;;;14.98;;
46675;SDS011;32412;51.478;5.694;2023-06-22T07:33:51;19.80;;;15.65;;
46675;SDS011;32412;51.478;5.694;2023-06-22T07:36:17;18.08;;;14.88;;
46675;SDS011;32412;51.478;5.694;2023-06-22T07:38:43;19.60;;;16.30;;
46675;SDS011;32412;51.478;5.694;2023-06-22T07:41:09;18.95;;;15.15;;
46675;SDS011;32412;51.478;5.694;2023-06-22T07:43:34;24.48;;;16.20;;
46675;SDS011;32412;51.478;5.694;2023-06-22T07:46:02;20.38;;;16.05;;
46675;SDS011;32412;51.478;5.694;2023-06-22T07:48:28;22.60;;;15.32;;
46675;SDS011;32412;51.478;5.694;2023-06-22T07:50:54;17.90;;;14.90;;
46675;SDS011;32412;51.478;5.694;2023-06-22T07:53:21;19.60;;;15.63;;
46675;SDS011;32412;51.478;5.694;2023-06-22T07:55:48;22.30;;;15.90;;
46675;SDS011;32412;51.478;5.694;2023-06-22T07:58:14;19.02;;;15.73;;
46675;SDS011;32412;51.478;5.694;2023-06-22T08:00:40;20.80;;;16.13;;
46675;SDS011;32412;51.478;5.694;2023-06-22T08:03:06;23.02;;;15.77;;
46675;SDS011;32412;51.478;5.694;2023-06-22T08:05:32;19.17;;;16.58;;
46675;SDS011;32412;51.478;5.694;2023-06-22T08:07:58;19.38;;;15.80;;
46675;SDS011;32412;51.478;5.694;2023-06-22T08:10:24;19.00;;;15.55;;
46675;SDS011;32412;51.478;5.694;2023-06-22T08:12:50;22.23;;;16.52;;
46675;SDS011;32412;51.478;5.694;2023-06-22T08:15:17;21.48;;;15.85;;
46675;SDS011;32412;51.478;5.694;2023-06-22T08:17:43;19.00;;;15.73;;
46675;SDS011;32412;51.478;5.694;2023-06-22T08:20:11;20.15;;;15.60;;
46675;SDS011;32412;51.478;5.694;2023-06-22T08:22:37;20.40;;;16.33;;
46675;SDS011;32412;51.478;5.694;2023-06-22T08:25:04;17.98;;;15.38;;
46675;SDS011;32412;51.478;5.694;2023-06-22T08:27:31;24.63;;;15.95;;
46675;SDS011;32412;51.478;5.694;2023-06-22T08:29:57;19.73;;;16.17;;
46675;SDS011;32412;51.478;5.694;2023-06-22T08:32:24;18.98;;;16.58;;
46675;SDS011;32412;51.478;5.694;2023-06-22T08:34:52;21.73;;;17.00;;
46675;SDS011;32412;51.478;5.694;2023-06-22T08:37:18;22.63;;;17.60;;
46675;SDS011;32412;51.478;5.694;2023-06-22T08:39:44;22.02;;;17.10;;
46675;SDS011;32412;51.478;5.694;2023-06-22T08:42:10;23.13;;;16.90;;
46675;SDS011;32412;51.478;5.694;2023-06-22T08:44:36;23.50;;;17.45;;
46675;SDS011;32412;51.478;5.694;2023-06-22T08:47:02;25.33;;;18.13;;
46675;SDS011;32412;51.478;5.694;2023-06-22T08:49:28;22.05;;;17.80;;
46675;SDS011;32412;51.478;5.694;2023-06-22T08:51:54;24.63;;;17.13;;
46675;SDS011;32412;51.478;5.694;2023-06-22T08:54:21;23.23;;;16.92;;
46675;SDS011;32412;51.478;5.694;2023-06-22T08:56:47;23.13;;;17.58;;
46675;SDS011;32412;51.478;5.694;2023-06-22T08:59:13;20.13;;;16.92;;
46675;SDS011;32412;51.478;5.694;2023-06-22T09:01:39;23.25;;;17.45;;
46675;SDS011;32412;51.478;5.694;2023-06-22T09:04:04;21.90;;;17.00;;
46675;SDS011;32412;51.478;5.694;2023-06-22T09:06:32;19.20;;;15.93;;
46675;SDS011;32412;51.478;5.694;2023-06-22T09:08:58;22.20;;;17.25;;
46675;SDS011;32412;51.478;5.694;2023-06-22T09:11:26;23.75;;;17.10;;
46675;SDS011;32412;51.478;5.694;2023-06-22T09:13:52;20.08;;;16.08;;
46675;SDS011;32412;51.478;5.694;2023-06-22T09:16:18;20.73;;;16.73;;
46675;SDS011;32412;51.478;5.694;2023-06-22T09:18:47;20.17;;;17.25;;
46675;SDS011;32412;51.478;5.694;2023-06-22T09:21:13;21.05;;;16.70;;
46675;SDS011;32412;51.478;5.694;2023-06-22T09:23:39;19.83;;;15.95;;
46675;SDS011;32412;51.478;5.694;2023-06-22T09:26:05;24.13;;;16.45;;
46675;SDS011;32412;51.478;5.694;2023-06-22T09:28:30;24.20;;;17.17;;
46675;SDS011;32412;51.478;5.694;2023-06-22T09:30:56;19.33;;;16.55;;
46675;SDS011;32412;51.478;5.694;2023-06-22T09:33:24;20.98;;;16.88;;
46675;SDS011;32412;51.478;5.694;2023-06-22T09:35:50;20.92;;;15.98;;
46675;SDS011;32412;51.478;5.694;2023-06-22T09:38:16;21.08;;;17.27;;
46675;SDS011;32412;51.478;5.694;2023-06-22T09:40:42;21.42;;;16.35;;
46675;SDS011;32412;51.478;5.694;2023-06-22T09:43:08;22.75;;;18.63;;
46675;SDS011;32412;51.478;5.694;2023-06-22T09:45:34;21.10;;;16.27;;
46675;SDS011;32412;51.478;5.694;2023-06-22T09:47:59;21.05;;;16.52;;
46675;SDS011;32412;51.478;5.694;2023-06-22T09:50:25;17.85;;;15.40;;
46675;SDS011;32412;51.478;5.694;2023-06-22T09:52:51;20.75;;;16.25;;
46675;SDS011;32412;51.478;5.694;2023-06-22T09:55:20;20.55;;;16.00;;
46675;SDS011;32412;51.478;5.694;2023-06-22T09:57:46;20.48;;;15.60;;
46675;SDS011;32412;51.478;5.694;2023-06-22T10:00:12;20.92;;;15.52;;
46675;SDS011;32412;51.478;5.694;2023-06-22T10:02:40;18.55;;;16.02;;
46675;SDS011;32412;51.478;5.694;2023-06-22T10:05:07;17.90;;;14.80;;
46675;SDS011;32412;51.478;5.694;2023-06-22T10:07:33;17.95;;;15.43;;
46675;SDS011;32412;51.478;5.694;2023-06-22T10:09:58;19.02;;;15.95;;
46675;SDS011;32412;51.478;5.694;2023-06-22T10:12:25;19.27;;;15.55;;
46675;SDS011;32412;51.478;5.694;2023-06-22T10:14:52;19.88;;;15.75;;
46675;SDS011;32412;51.478;5.694;2023-06-22T10:17:18;18.52;;;16.05;;
46675;SDS011;32412;51.478;5.694;2023-06-22T10:19:43;19.27;;;15.85;;
46675;SDS011;32412;51.478;5.694;2023-06-22T10:22:09;18.73;;;15.68;;
46675;SDS011;32412;51.478;5.694;2023-06-22T10:24:35;19.60;;;15.68;;
46675;SDS011;32412;51.478;5.694;2023-06-22T10:27:00;19.20;;;14.18;;
46675;SDS011;32412;51.478;5.694;2023-06-22T10:29:26;20.20;;;14.52;;
46675;SDS011;32412;51.478;5.694;2023-06-22T10:31:52;17.45;;;13.23;;
46675;SDS011;32412;51.478;5.694;2023-06-22T10:34:17;15.93;;;14.23;;
46675;SDS011;32412;51.478;5.694;2023-06-22T10:36:43;17.27;;;13.88;;
46675;SDS011;32412;51.478;5.694;2023-06-22T10:39:11;16.45;;;13.88;;
46675;SDS011;32412;51.478;5.694;2023-06-22T10:41:36;16.45;;;13.52;;
46675;SDS011;32412;51.478;5.694;2023-06-22T10:44:02;21.20;;;15.55;;
46675;SDS011;32412;51.478;5.694;2023-06-22T10:46:28;20.63;;;15.48;;
46675;SDS011;32412;51.478;5.694;2023-06-22T10:48:54;21.83;;;16.20;;
46675;SDS011;32412;51.478;5.694;2023-06-22T10:51:20;23.05;;;18.45;;
46675;SDS011;32412;51.478;5.694;2023-06-22T10:53:46;23.90;;;19.33;;
46675;SDS011;32412;51.478;5.694;2023-06-22T10:56:13;27.80;;;21.35;;
46675;SDS011;32412;51.478;5.694;2023-06-22T10:58:39;28.45;;;23.00;;
46675;SDS011;32412;51.478;5.694;2023-06-22T11:01:05;30.88;;;24.15;;
46675;SDS011;32412;51.478;5.694;2023-06-22T11:03:30;31.95;;;24.70;;
46675;SDS011;32412;51.478;5.694;2023-06-22T11:05:56;33.58;;;24.92;;
46675;SDS011;32412;51.478;5.694;2023-06-22T11:08:21;37.97;;;27.33;;
46675;SDS011;32412;51.478;5.694;2023-06-22T11:10:47;36.88;;;28.63;;
46675;SDS011;32412;51.478;5.694;2023-06-22T11:13:13;40.15;;;29.02;;
46675;SDS011;32412;51.478;5.694;2023-06-22T11:15:39;43.78;;;32.05;;
46675;SDS011;32412;51.478;5.694;2023-06-22T11:18:05;46.22;;;32.50;;
46675;SDS011;32412;51.478;5.694;2023-06-22T11:20:32;47.63;;;33.28;;
46675;SDS011;32412;51.478;5.694;2023-06-22T11:23:03;52.40;;;34.67;;
46675;SDS011;32412;51.478;5.694;2023-06-22T11:25:30;48.42;;;35.08;;
46675;SDS011;32412;51.478;5.694;2023-06-22T11:27:55;51.22;;;35.70;;
46675;SDS011;32412;51.478;5.694;2023-06-22T11:30:23;54.25;;;36.88;;
46675;SDS011;32412;51.478;5.694;2023-06-22T11:32:49;59.00;;;38.65;;
46675;SDS011;32412;51.478;5.694;2023-06-22T11:35:14;60.75;;;38.95;;
46675;SDS011;32412;51.478;5.694;2023-06-22T11:37:40;61.65;;;40.15;;
46675;SDS011;32412;51.478;5.694;2023-06-22T11:40:07;60.30;;;40.67;;
46675;SDS011;32412;51.478;5.694;2023-06-22T11:42:34;62.90;;;41.53;;
46675;SDS011;32412;51.478;5.694;2023-06-22T11:45:00;60.80;;;40.90;;
46675;SDS011;32412;51.478;5.694;2023-06-22T11:47:26;62.33;;;42.35;;
46675;SDS011;32412;51.478;5.694;2023-06-22T11:49:52;61.08;;;41.70;;
46675;SDS011;32412;51.478;5.694;2023-06-22T11:52:18;62.60;;;41.85;;
46675;SDS011;32412;51.478;5.694;2023-06-22T11:54:44;61.80;;;42.20;;
46675;SDS011;32412;51.478;5.694;2023-06-22T11:57:10;72.07;;;45.15;;
46675;SDS011;32412;51.478;5.694;2023-06-22T11:59:36;72.60;;;46.80;;
46675;SDS011;32412;51.478;5.694;2023-06-22T12:02:02;69.78;;;46.08;;
46675;SDS011;32412;51.478;5.694;2023-06-22T12:04:29;71.47;;;46.63;;
46675;SDS011;32412;51.478;5.694;2023-06-22T12:06:54;73.40;;;46.55;;
46675;SDS011;32412;51.478;5.694;2023-06-22T12:09:20;68.05;;;45.95;;
46675;SDS011;32412;51.478;5.694;2023-06-22T12:11:46;69.47;;;45.88;;
46675;SDS011;32412;51.478;5.694;2023-06-22T12:14:11;69.57;;;44.30;;
46675;SDS011;32412;51.478;5.694;2023-06-22T12:16:37;70.18;;;46.10;;
46675;SDS011;32412;51.478;5.694;2023-06-22T12:19:03;65.68;;;45.03;;
46675;SDS011;32412;51.478;5.694;2023-06-22T12:21:29;60.70;;;42.35;;
46675;SDS011;32412;51.478;5.694;2023-06-22T12:23:54;65.70;;;43.33;;
46675;SDS011;32412;51.478;5.694;2023-06-22T12:26:20;66.55;;;44.10;;
46675;SDS011;32412;51.478;5.694;2023-06-22T12:28:47;62.15;;;43.15;;
46675;SDS011;32412;51.478;5.694;2023-06-22T12:31:13;58.75;;;40.88;;
46675;SDS011;32412;51.478;5.694;2023-06-22T12:33:39;58.00;;;38.95;;
46675;SDS011;32412;51.478;5.694;2023-06-22T12:36:05;54.88;;;38.15;;
46675;SDS011;32412;51.478;5.694;2023-06-22T12:38:31;54.67;;;38.60;;
46675;SDS011;32412;51.478;5.694;2023-06-22T12:40:56;49.25;;;37.90;;
46675;SDS011;32412;51.478;5.694;2023-06-22T12:43:22;53.70;;;39.35;;
46675;SDS011;32412;51.478;5.694;2023-06-22T12:45:47;54.00;;;39.40;;
46675;SDS011;32412;51.478;5.694;2023-06-22T12:48:13;46.75;;;37.78;;
46675;SDS011;32412;51.478;5.694;2023-06-22T12:50:39;48.03;;;37.53;;
46675;SDS011;32412;51.478;5.694;2023-06-22T12:53:04;52.72;;;39.78;;
46675;SDS011;32412;51.478;5.694;2023-06-22T12:55:31;49.55;;;38.10;;
46675;SDS011;32412;51.478;5.694;2023-06-22T12:57:57;56.38;;;40.30;;
46675;SDS011;32412;51.478;5.694;2023-06-22T13:00:23;60.58;;;42.35;;
46675;SDS011;32412;51.478;5.694;2023-06-22T13:02:48;56.55;;;42.13;;
46675;SDS011;32412;51.478;5.694;2023-06-22T13:05:14;57.20;;;42.58;;
46675;SDS011;32412;51.478;5.694;2023-06-22T13:07:40;59.08;;;42.17;;
46675;SDS011;32412;51.478;5.694;2023-06-22T13:10:07;52.50;;;39.03;;
46675;SDS011;32412;51.478;5.694;2023-06-22T13:12:33;52.05;;;39.55;;
46675;SDS011;32412;51.478;5.694;2023-06-22T13:14:59;52.42;;;39.08;;
46675;SDS011;32412;51.478;5.694;2023-06-22T13:17:24;52.03;;;40.60;;
46675;SDS011;32412;51.478;5.694;2023-06-22T13:19:50;57.08;;;41.00;;
46675;SDS011;32412;51.478;5.694;2023-06-22T13:22:29;54.65;;;41.90;;
46675;SDS011;32412;51.478;5.694;2023-06-22T13:24:56;56.90;;;42.72;;
46675;SDS011;32412;51.478;5.694;2023-06-22T13:27:22;61.33;;;42.30;;
46675;SDS011;32412;51.478;5.694;2023-06-22T13:29:49;58.97;;;42.13;;
46675;SDS011;32412;51.478;5.694;2023-06-22T13:32:14;57.80;;;42.60;;
46675;SDS011;32412;51.478;5.694;2023-06-22T13:34:40;54.67;;;41.72;;
46675;SDS011;32412;51.478;5.694;2023-06-22T13:37:07;50.22;;;40.33;;
46675;SDS011;32412;51.478;5.694;2023-06-22T13:39:32;55.08;;;42.38;;
46675;SDS011;32412;51.478;5.694;2023-06-22T13:41:58;54.35;;;40.72;;
46675;SDS011;32412;51.478;5.694;2023-06-22T13:44:24;55.60;;;41.92;;
46675;SDS011;32412;51.478;5.694;2023-06-22T13:46:53;54.03;;;42.15;;
46675;SDS011;32412;51.478;5.694;2023-06-22T13:49:22;57.33;;;42.42;;
46675;SDS011;32412;51.478;5.694;2023-06-22T13:51:48;56.20;;;40.25;;
46675;SDS011;32412;51.478;5.694;2023-06-22T13:54:14;52.97;;;41.70;;
46675;SDS011;32412;51.478;5.694;2023-06-22T13:56:40;55.97;;;41.08;;
46675;SDS011;32412;51.478;5.694;2023-06-22T13:59:05;51.25;;;39.95;;
46675;SDS011;32412;51.478;5.694;2023-06-22T14:01:34;55.58;;;40.25;;
46675;SDS011;32412;51.478;5.694;2023-06-22T14:04:00;56.92;;;41.63;;
46675;SDS011;32412;51.478;5.694;2023-06-22T14:06:27;55.28;;;42.28;;
46675;SDS011;32412;51.478;5.694;2023-06-22T14:08:53;58.50;;;44.55;;
46675;SDS011;32412;51.478;5.694;2023-06-22T14:11:18;60.28;;;43.70;;
46675;SDS011;32412;51.478;5.694;2023-06-22T14:13:44;61.35;;;44.38;;
46675;SDS011;32412;51.478;5.694;2023-06-22T14:16:10;57.65;;;43.55;;
46675;SDS011;32412;51.478;5.694;2023-06-22T14:18:36;56.28;;;43.38;;
46675;SDS011;32412;51.478;5.694;2023-06-22T14:21:01;59.55;;;44.05;;
46675;SDS011;32412;51.478;5.694;2023-06-22T14:23:27;58.50;;;44.67;;
46675;SDS011;32412;51.478;5.694;2023-06-22T14:25:53;58.80;;;46.90;;
46675;SDS011;32412;51.478;5.694;2023-06-22T14:28:18;62.22;;;46.15;;
46675;SDS011;32412;51.478;5.694;2023-06-22T14:30:44;60.13;;;45.38;;
46675;SDS011;32412;51.478;5.694;2023-06-22T14:33:10;61.55;;;45.65;;
46675;SDS011;32412;51.478;5.694;2023-06-22T14:35:37;60.53;;;45.42;;
46675;SDS011;32412;51.478;5.694;2023-06-22T14:38:02;60.50;;;42.72;;
46675;SDS011;32412;51.478;5.694;2023-06-22T14:40:28;61.33;;;40.28;;